sensor_id;sensor_type;location;lat;lon;timestamp;P1;durP1;ratioP1;P2;durP2;ratioP2
6985;SDS011;3533;51.246;6.850;2023-01-30T00:01:03;1.80;;;1.70;;
6985;SDS011;3533;51.246;6.850;2023-01-30T00:03:29;2.00;;;1.90;;
6985;SDS011;3533;51.246;6.850;2023-01-30T00:05:55;2.40;;;2.30;;
6985;SDS011;3533;51.246;6.850;2023-01-30T00:08:21;2.20;;;2.10;;
6985;SDS011;3533;51.246;6.850;2023-01-30T00:10:46;2.20;;;2.00;;
6985;SDS011;3533;51.246;6.850;2023-01-30T00:13:12;2.27;;;2.17;;
6985;SDS011;3533;51.246;6.850;2023-01-30T00:15:39;2.13;;;2.03;;
6985;SDS011;3533;51.246;6.850;2023-01-30T00:18:05;2.13;;;2.03;;
6985;SDS011;3533;51.246;6.850;2023-01-30T00:20:31;2.30;;;2.10;;
6985;SDS011;3533;51.246;6.850;2023-01-30T00:22:57;2.17;;;2.07;;
6985;SDS011;3533;51.246;6.850;2023-01-30T00:25:23;2.33;;;2.23;;
6985;SDS011;3533;51.246;6.850;2023-01-30T00:27:49;2.17;;;2.07;;
6985;SDS011;3533;51.246;6.850;2023-01-30T00:30:15;2.00;;;1.90;;
6985;SDS011;3533;51.246;6.850;2023-01-30T00:32:41;2.50;;;2.30;;
6985;SDS011;3533;51.246;6.850;2023-01-30T00:35:06;2.10;;;2.00;;
6985;SDS011;3533;51.246;6.850;2023-01-30T00:37:32;2.03;;;1.83;;
6985;SDS011;3533;51.246;6.850;2023-01-30T00:39:57;3.67;;;2.00;;
6985;SDS011;3533;51.246;6.850;2023-01-30T00:42:23;2.30;;;2.20;;
6985;SDS011;3533;51.246;6.850;2023-01-30T00:45:10;2.17;;;2.03;;
6985;SDS011;3533;51.246;6.850;2023-01-30T00:47:55;1.90;;;1.80;;
6985;SDS011;3533;51.246;6.850;2023-01-30T00:50:21;2.10;;;2.00;;
6985;SDS011;3533;51.246;6.850;2023-01-30T00:52:46;2.00;;;1.90;;
6985;SDS011;3533;51.246;6.850;2023-01-30T00:55:12;2.17;;;2.07;;
6985;SDS011;3533;51.246;6.850;2023-01-30T00:57:39;1.80;;;1.70;;
6985;SDS011;3533;51.246;6.850;2023-01-30T01:00:05;2.20;;;2.10;;
6985;SDS011;3533;51.246;6.850;2023-01-30T01:02:33;1.90;;;1.80;;
6985;SDS011;3533;51.246;6.850;2023-01-30T01:04:59;2.23;;;2.13;;
6985;SDS011;3533;51.246;6.850;2023-01-30T01:07:25;1.83;;;1.73;;
6985;SDS011;3533;51.246;6.850;2023-01-30T01:09:50;1.80;;;1.70;;
6985;SDS011;3533;51.246;6.850;2023-01-30T01:12:16;2.27;;;2.17;;
6985;SDS011;3533;51.246;6.850;2023-01-30T01:14:41;2.03;;;1.93;;
6985;SDS011;3533;51.246;6.850;2023-01-30T01:17:07;2.20;;;2.07;;
6985;SDS011;3533;51.246;6.850;2023-01-30T01:19:32;2.10;;;1.73;;
6985;SDS011;3533;51.246;6.850;2023-01-30T01:21:58;2.10;;;2.00;;
6985;SDS011;3533;51.246;6.850;2023-01-30T01:24:24;2.20;;;2.10;;
6985;SDS011;3533;51.246;6.850;2023-01-30T01:26:49;2.27;;;2.10;;
6985;SDS011;3533;51.246;6.850;2023-01-30T01:29:15;1.90;;;1.80;;
6985;SDS011;3533;51.246;6.850;2023-01-30T01:31:41;2.13;;;2.03;;
6985;SDS011;3533;51.246;6.850;2023-01-30T01:34:08;2.00;;;1.90;;
6985;SDS011;3533;51.246;6.850;2023-01-30T01:36:33;1.90;;;1.80;;
6985;SDS011;3533;51.246;6.850;2023-01-30T01:38:59;1.77;;;1.67;;
6985;SDS011;3533;51.246;6.850;2023-01-30T01:41:25;2.03;;;1.93;;
6985;SDS011;3533;51.246;6.850;2023-01-30T01:48:58;2.30;;;2.20;;
6985;SDS011;3533;51.246;6.850;2023-01-30T01:51:37;2.13;;;2.03;;
6985;SDS011;3533;51.246;6.850;2023-01-30T01:54:44;2.10;;;2.00;;
6985;SDS011;3533;51.246;6.850;2023-01-30T01:57:21;2.00;;;1.90;;
6985;SDS011;3533;51.246;6.850;2023-01-30T01:59:51;2.13;;;1.93;;
6985;SDS011;3533;51.246;6.850;2023-01-30T02:03:22;1.80;;;1.70;;
6985;SDS011;3533;51.246;6.850;2023-01-30T02:05:31;2.40;;;2.30;;
6985;SDS011;3533;51.246;6.850;2023-01-30T02:08:01;1.90;;;1.80;;
6985;SDS011;3533;51.246;6.850;2023-01-30T02:10:42;2.00;;;1.90;;
6985;SDS011;3533;51.246;6.850;2023-01-30T02:13:18;1.90;;;1.70;;
6985;SDS011;3533;51.246;6.850;2023-01-30T02:15:44;2.67;;;1.90;;
6985;SDS011;3533;51.246;6.850;2023-01-30T02:18:10;2.20;;;2.10;;
6985;SDS011;3533;51.246;6.850;2023-01-30T02:34:16;1.97;;;1.87;;
6985;SDS011;3533;51.246;6.850;2023-01-30T02:45:14;1.93;;;1.83;;
6985;SDS011;3533;51.246;6.850;2023-01-30T02:50:33;2.27;;;1.90;;
6985;SDS011;3533;51.246;6.850;2023-01-30T02:53:04;1.80;;;1.70;;
6985;SDS011;3533;51.246;6.850;2023-01-30T02:55:30;1.80;;;1.70;;
6985;SDS011;3533;51.246;6.850;2023-01-30T02:57:56;1.93;;;1.83;;
6985;SDS011;3533;51.246;6.850;2023-01-30T03:06:36;1.80;;;1.70;;
6985;SDS011;3533;51.246;6.850;2023-01-30T03:09:00;1.90;;;1.80;;
6985;SDS011;3533;51.246;6.850;2023-01-30T03:11:50;2.30;;;2.10;;
6985;SDS011;3533;51.246;6.850;2023-01-30T03:14:36;1.87;;;1.77;;
6985;SDS011;3533;51.246;6.850;2023-01-30T03:17:11;1.70;;;1.60;;
6985;SDS011;3533;51.246;6.850;2023-01-30T03:19:38;1.90;;;1.80;;
6985;SDS011;3533;51.246;6.850;2023-01-30T03:22:04;1.77;;;1.67;;
6985;SDS011;3533;51.246;6.850;2023-01-30T03:24:30;3.53;;;1.80;;
6985;SDS011;3533;51.246;6.850;2023-01-30T03:26:57;2.60;;;1.77;;
6985;SDS011;3533;51.246;6.850;2023-01-30T03:29:32;1.70;;;1.60;;
6985;SDS011;3533;51.246;6.850;2023-01-30T03:31:58;1.77;;;1.67;;
6985;SDS011;3533;51.246;6.850;2023-01-30T03:34:23;1.70;;;1.60;;
6985;SDS011;3533;51.246;6.850;2023-01-30T03:36:49;1.70;;;1.60;;
6985;SDS011;3533;51.246;6.850;2023-01-30T03:39:14;1.93;;;1.83;;
6985;SDS011;3533;51.246;6.850;2023-01-30T03:41:40;2.00;;;1.90;;
6985;SDS011;3533;51.246;6.850;2023-01-30T03:44:06;1.80;;;1.70;;
6985;SDS011;3533;51.246;6.850;2023-01-30T03:46:32;1.93;;;1.70;;
6985;SDS011;3533;51.246;6.850;2023-01-30T03:48:57;2.17;;;2.00;;
6985;SDS011;3533;51.246;6.850;2023-01-30T03:51:23;1.70;;;1.60;;
6985;SDS011;3533;51.246;6.850;2023-01-30T03:53:48;1.60;;;1.50;;
6985;SDS011;3533;51.246;6.850;2023-01-30T03:56:14;1.80;;;1.70;;
6985;SDS011;3533;51.246;6.850;2023-01-30T03:58:39;2.17;;;2.07;;
6985;SDS011;3533;51.246;6.850;2023-01-30T04:01:05;2.00;;;1.90;;
6985;SDS011;3533;51.246;6.850;2023-01-30T04:03:31;1.70;;;1.60;;
6985;SDS011;3533;51.246;6.850;2023-01-30T04:05:58;1.90;;;1.80;;
6985;SDS011;3533;51.246;6.850;2023-01-30T04:08:23;1.87;;;1.77;;
6985;SDS011;3533;51.246;6.850;2023-01-30T04:10:49;1.80;;;1.70;;
6985;SDS011;3533;51.246;6.850;2023-01-30T04:13:15;1.70;;;1.60;;
6985;SDS011;3533;51.246;6.850;2023-01-30T04:15:40;1.90;;;1.80;;
6985;SDS011;3533;51.246;6.850;2023-01-30T04:18:06;1.90;;;1.80;;
6985;SDS011;3533;51.246;6.850;2023-01-30T04:20:31;2.00;;;1.80;;
6985;SDS011;3533;51.246;6.850;2023-01-30T04:22:57;1.93;;;1.83;;
6985;SDS011;3533;51.246;6.850;2023-01-30T04:25:22;1.70;;;1.60;;
6985;SDS011;3533;51.246;6.850;2023-01-30T04:27:48;1.93;;;1.83;;
6985;SDS011;3533;51.246;6.850;2023-01-30T04:30:14;2.00;;;1.90;;
6985;SDS011;3533;51.246;6.850;2023-01-30T04:32:39;2.00;;;1.50;;
6985;SDS011;3533;51.246;6.850;2023-01-30T04:35:05;1.67;;;1.57;;
6985;SDS011;3533;51.246;6.850;2023-01-30T04:37:31;1.83;;;1.73;;
6985;SDS011;3533;51.246;6.850;2023-01-30T04:39:56;2.00;;;1.90;;
6985;SDS011;3533;51.246;6.850;2023-01-30T04:42:22;1.87;;;1.77;;
6985;SDS011;3533;51.246;6.850;2023-01-30T04:44:47;1.80;;;1.70;;
6985;SDS011;3533;51.246;6.850;2023-01-30T04:47:13;1.90;;;1.80;;
6985;SDS011;3533;51.246;6.850;2023-01-30T04:49:38;1.60;;;1.50;;
6985;SDS011;3533;51.246;6.850;2023-01-30T04:52:04;1.90;;;1.80;;
6985;SDS011;3533;51.246;6.850;2023-01-30T04:54:30;1.60;;;1.50;;
6985;SDS011;3533;51.246;6.850;2023-01-30T04:56:56;1.60;;;1.50;;
6985;SDS011;3533;51.246;6.850;2023-01-30T04:59:21;1.70;;;1.60;;
6985;SDS011;3533;51.246;6.850;2023-01-30T05:01:47;1.97;;;1.87;;
6985;SDS011;3533;51.246;6.850;2023-01-30T05:04:13;1.87;;;1.77;;
6985;SDS011;3533;51.246;6.850;2023-01-30T05:06:38;1.90;;;1.70;;
6985;SDS011;3533;51.246;6.850;2023-01-30T05:09:04;1.80;;;1.70;;
6985;SDS011;3533;51.246;6.850;2023-01-30T05:11:30;1.73;;;1.63;;
6985;SDS011;3533;51.246;6.850;2023-01-30T05:13:56;1.70;;;1.60;;
6985;SDS011;3533;51.246;6.850;2023-01-30T05:16:21;1.70;;;1.60;;
6985;SDS011;3533;51.246;6.850;2023-01-30T05:18:47;1.77;;;1.67;;
6985;SDS011;3533;51.246;6.850;2023-01-30T05:21:15;1.73;;;1.63;;
6985;SDS011;3533;51.246;6.850;2023-01-30T05:23:45;1.90;;;1.80;;
6985;SDS011;3533;51.246;6.850;2023-01-30T05:26:11;1.70;;;1.60;;
6985;SDS011;3533;51.246;6.850;2023-01-30T05:28:38;1.90;;;1.80;;
6985;SDS011;3533;51.246;6.850;2023-01-30T05:31:04;1.60;;;1.50;;
6985;SDS011;3533;51.246;6.850;2023-01-30T05:33:34;1.73;;;1.63;;
6985;SDS011;3533;51.246;6.850;2023-01-30T05:36:00;1.97;;;1.77;;
6985;SDS011;3533;51.246;6.850;2023-01-30T05:38:26;1.60;;;1.50;;
6985;SDS011;3533;51.246;6.850;2023-01-30T05:40:59;1.70;;;1.60;;
6985;SDS011;3533;51.246;6.850;2023-01-30T05:43:25;2.07;;;1.87;;
6985;SDS011;3533;51.246;6.850;2023-01-30T05:45:51;2.20;;;1.60;;
6985;SDS011;3533;51.246;6.850;2023-01-30T05:48:18;1.60;;;1.50;;
6985;SDS011;3533;51.246;6.850;2023-01-30T05:50:44;2.03;;;1.80;;
6985;SDS011;3533;51.246;6.850;2023-01-30T05:53:09;1.80;;;1.70;;
6985;SDS011;3533;51.246;6.850;2023-01-30T05:55:35;1.83;;;1.70;;
6985;SDS011;3533;51.246;6.850;2023-01-30T05:58:00;4.20;;;2.80;;
6985;SDS011;3533;51.246;6.850;2023-01-30T06:00:26;1.70;;;1.60;;
6985;SDS011;3533;51.246;6.850;2023-01-30T06:02:51;1.57;;;1.47;;
6985;SDS011;3533;51.246;6.850;2023-01-30T06:05:17;1.63;;;1.53;;
6985;SDS011;3533;51.246;6.850;2023-01-30T06:07:42;1.60;;;1.50;;
6985;SDS011;3533;51.246;6.850;2023-01-30T06:10:08;1.70;;;1.60;;
6985;SDS011;3533;51.246;6.850;2023-01-30T06:12:34;1.47;;;1.37;;
6985;SDS011;3533;51.246;6.850;2023-01-30T06:15:00;1.60;;;1.50;;
6985;SDS011;3533;51.246;6.850;2023-01-30T06:17:25;2.43;;;1.57;;
6985;SDS011;3533;51.246;6.850;2023-01-30T06:19:51;1.80;;;1.70;;
6985;SDS011;3533;51.246;6.850;2023-01-30T06:22:16;1.57;;;1.47;;
6985;SDS011;3533;51.246;6.850;2023-01-30T06:24:42;1.83;;;1.50;;
6985;SDS011;3533;51.246;6.850;2023-01-30T06:27:07;2.00;;;1.90;;
6985;SDS011;3533;51.246;6.850;2023-01-30T06:29:33;3.40;;;1.40;;
6985;SDS011;3533;51.246;6.850;2023-01-30T06:31:58;1.90;;;1.70;;
6985;SDS011;3533;51.246;6.850;2023-01-30T06:34:24;1.80;;;1.70;;
6985;SDS011;3533;51.246;6.850;2023-01-30T06:36:49;1.83;;;1.73;;
6985;SDS011;3533;51.246;6.850;2023-01-30T06:39:15;2.20;;;2.00;;
6985;SDS011;3533;51.246;6.850;2023-01-30T06:41:40;1.60;;;1.50;;
6985;SDS011;3533;51.246;6.850;2023-01-30T06:44:07;1.50;;;1.40;;
6985;SDS011;3533;51.246;6.850;2023-01-30T06:46:33;1.60;;;1.50;;
6985;SDS011;3533;51.246;6.850;2023-01-30T06:48:58;2.07;;;1.60;;
6985;SDS011;3533;51.246;6.850;2023-01-30T06:51:24;1.50;;;1.40;;
6985;SDS011;3533;51.246;6.850;2023-01-30T06:53:51;1.30;;;1.20;;
6985;SDS011;3533;51.246;6.850;2023-01-30T06:56:17;1.53;;;1.43;;
6985;SDS011;3533;51.246;6.850;2023-01-30T06:58:43;2.13;;;1.40;;
6985;SDS011;3533;51.246;6.850;2023-01-30T07:01:09;1.60;;;1.30;;
6985;SDS011;3533;51.246;6.850;2023-01-30T07:03:35;1.37;;;1.27;;
6985;SDS011;3533;51.246;6.850;2023-01-30T07:06:00;1.57;;;1.20;;
6985;SDS011;3533;51.246;6.850;2023-01-30T07:08:26;1.67;;;1.30;;
6985;SDS011;3533;51.246;6.850;2023-01-30T07:10:51;1.20;;;1.10;;
6985;SDS011;3533;51.246;6.850;2023-01-30T07:13:17;2.70;;;1.50;;
6985;SDS011;3533;51.246;6.850;2023-01-30T07:15:43;1.20;;;1.10;;
6985;SDS011;3533;51.246;6.850;2023-01-30T07:18:09;1.47;;;1.30;;
6985;SDS011;3533;51.246;6.850;2023-01-30T07:20:34;1.30;;;1.20;;
6985;SDS011;3533;51.246;6.850;2023-01-30T07:23:00;1.37;;;1.27;;
6985;SDS011;3533;51.246;6.850;2023-01-30T07:25:26;1.37;;;1.27;;
6985;SDS011;3533;51.246;6.850;2023-01-30T07:27:55;1.30;;;1.20;;
6985;SDS011;3533;51.246;6.850;2023-01-30T07:30:23;1.47;;;1.37;;
6985;SDS011;3533;51.246;6.850;2023-01-30T07:32:53;1.40;;;1.30;;
6985;SDS011;3533;51.246;6.850;2023-01-30T07:35:20;1.40;;;1.30;;
6985;SDS011;3533;51.246;6.850;2023-01-30T07:37:47;1.40;;;1.30;;
6985;SDS011;3533;51.246;6.850;2023-01-30T07:40:13;1.47;;;1.30;;
6985;SDS011;3533;51.246;6.850;2023-01-30T07:42:40;1.40;;;1.30;;
6985;SDS011;3533;51.246;6.850;2023-01-30T07:45:06;1.23;;;1.13;;
6985;SDS011;3533;51.246;6.850;2023-01-30T07:47:31;1.93;;;1.27;;
6985;SDS011;3533;51.246;6.850;2023-01-30T07:49:57;1.50;;;1.40;;
6985;SDS011;3533;51.246;6.850;2023-01-30T07:52:22;1.27;;;1.17;;
6985;SDS011;3533;51.246;6.850;2023-01-30T07:54:48;1.30;;;1.20;;
6985;SDS011;3533;51.246;6.850;2023-01-30T07:57:13;1.30;;;1.20;;
6985;SDS011;3533;51.246;6.850;2023-01-30T07:59:39;1.33;;;1.23;;
6985;SDS011;3533;51.246;6.850;2023-01-30T08:02:05;1.43;;;1.33;;
6985;SDS011;3533;51.246;6.850;2023-01-30T08:04:30;1.20;;;1.10;;
6985;SDS011;3533;51.246;6.850;2023-01-30T08:06:56;1.40;;;1.30;;
6985;SDS011;3533;51.246;6.850;2023-01-30T08:09:22;1.20;;;1.10;;
6985;SDS011;3533;51.246;6.850;2023-01-30T08:11:47;1.20;;;1.10;;
6985;SDS011;3533;51.246;6.850;2023-01-30T08:14:13;1.40;;;1.30;;
6985;SDS011;3533;51.246;6.850;2023-01-30T08:16:38;1.30;;;1.20;;
6985;SDS011;3533;51.246;6.850;2023-01-30T08:19:04;1.50;;;1.40;;
6985;SDS011;3533;51.246;6.850;2023-01-30T08:21:30;1.30;;;1.20;;
6985;SDS011;3533;51.246;6.850;2023-01-30T08:23:56;1.20;;;1.10;;
6985;SDS011;3533;51.246;6.850;2023-01-30T08:26:21;1.30;;;1.20;;
6985;SDS011;3533;51.246;6.850;2023-01-30T08:28:47;1.50;;;1.40;;
6985;SDS011;3533;51.246;6.850;2023-01-30T08:31:13;1.40;;;1.30;;
6985;SDS011;3533;51.246;6.850;2023-01-30T08:33:40;1.30;;;1.20;;
6985;SDS011;3533;51.246;6.850;2023-01-30T08:36:05;1.40;;;1.30;;
6985;SDS011;3533;51.246;6.850;2023-01-30T08:38:31;1.20;;;1.10;;
6985;SDS011;3533;51.246;6.850;2023-01-30T08:40:57;1.40;;;1.30;;
6985;SDS011;3533;51.246;6.850;2023-01-30T08:43:23;1.33;;;1.20;;
6985;SDS011;3533;51.246;6.850;2023-01-30T08:45:51;1.63;;;1.50;;
6985;SDS011;3533;51.246;6.850;2023-01-30T08:48:18;1.20;;;1.10;;
6985;SDS011;3533;51.246;6.850;2023-01-30T08:50:44;1.27;;;1.17;;
6985;SDS011;3533;51.246;6.850;2023-01-30T08:53:09;1.20;;;1.10;;
6985;SDS011;3533;51.246;6.850;2023-01-30T08:55:35;1.40;;;1.30;;
6985;SDS011;3533;51.246;6.850;2023-01-30T08:58:00;1.57;;;1.10;;
6985;SDS011;3533;51.246;6.850;2023-01-30T09:00:26;1.20;;;1.10;;
6985;SDS011;3533;51.246;6.850;2023-01-30T09:02:56;1.20;;;1.10;;
6985;SDS011;3533;51.246;6.850;2023-01-30T09:05:21;1.27;;;1.17;;
6985;SDS011;3533;51.246;6.850;2023-01-30T09:07:48;1.70;;;1.20;;
6985;SDS011;3533;51.246;6.850;2023-01-30T09:10:14;1.37;;;1.27;;
6985;SDS011;3533;51.246;6.850;2023-01-30T09:12:40;1.33;;;1.23;;
6985;SDS011;3533;51.246;6.850;2023-01-30T09:15:05;1.40;;;1.30;;
6985;SDS011;3533;51.246;6.850;2023-01-30T09:17:32;1.10;;;1.00;;
6985;SDS011;3533;51.246;6.850;2023-01-30T09:19:57;1.10;;;1.00;;
6985;SDS011;3533;51.246;6.850;2023-01-30T09:22:23;1.30;;;1.20;;
6985;SDS011;3533;51.246;6.850;2023-01-30T09:24:48;1.40;;;1.30;;
6985;SDS011;3533;51.246;6.850;2023-01-30T09:27:14;1.20;;;1.10;;
6985;SDS011;3533;51.246;6.850;2023-01-30T09:29:39;1.10;;;1.00;;
6985;SDS011;3533;51.246;6.850;2023-01-30T09:32:05;1.20;;;1.10;;
6985;SDS011;3533;51.246;6.850;2023-01-30T09:34:30;1.20;;;1.10;;
6985;SDS011;3533;51.246;6.850;2023-01-30T09:36:56;1.30;;;1.20;;
6985;SDS011;3533;51.246;6.850;2023-01-30T09:39:25;1.27;;;1.17;;
6985;SDS011;3533;51.246;6.850;2023-01-30T09:41:58;1.20;;;1.10;;
6985;SDS011;3533;51.246;6.850;2023-01-30T09:44:53;1.10;;;1.00;;
6985;SDS011;3533;51.246;6.850;2023-01-30T09:47:47;1.40;;;1.30;;
6985;SDS011;3533;51.246;6.850;2023-01-30T09:55:43;1.10;;;1.00;;
6985;SDS011;3533;51.246;6.850;2023-01-30T09:58:15;1.20;;;1.10;;
6985;SDS011;3533;51.246;6.850;2023-01-30T10:00:43;1.10;;;1.00;;
6985;SDS011;3533;51.246;6.850;2023-01-30T10:03:11;1.10;;;1.00;;
6985;SDS011;3533;51.246;6.850;2023-01-30T10:11:17;1.40;;;1.07;;
6985;SDS011;3533;51.246;6.850;2023-01-30T10:13:53;3.30;;;1.20;;
6985;SDS011;3533;51.246;6.850;2023-01-30T10:27:21;1.50;;;1.10;;
6985;SDS011;3533;51.246;6.850;2023-01-30T10:29:53;1.10;;;1.00;;
6985;SDS011;3533;51.246;6.850;2023-01-30T10:32:39;1.10;;;1.00;;
6985;SDS011;3533;51.246;6.850;2023-01-30T10:35:18;1.20;;;1.07;;
6985;SDS011;3533;51.246;6.850;2023-01-30T10:37:56;1.07;;;1.00;;
6985;SDS011;3533;51.246;6.850;2023-01-30T10:40:28;1.63;;;1.00;;
6985;SDS011;3533;51.246;6.850;2023-01-30T10:43:15;1.10;;;1.00;;
6985;SDS011;3533;51.246;6.850;2023-01-30T10:49:17;1.20;;;1.10;;
6985;SDS011;3533;51.246;6.850;2023-01-30T10:52:02;0.93;;;0.90;;
6985;SDS011;3533;51.246;6.850;2023-01-30T11:00:42;1.27;;;1.17;;
6985;SDS011;3533;51.246;6.850;2023-01-30T11:05:44;1.10;;;1.00;;
6985;SDS011;3533;51.246;6.850;2023-01-30T11:08:24;0.87;;;0.80;;
6985;SDS011;3533;51.246;6.850;2023-01-30T11:10:52;1.00;;;0.90;;
6985;SDS011;3533;51.246;6.850;2023-01-30T11:13:20;1.43;;;1.00;;
6985;SDS011;3533;51.246;6.850;2023-01-30T11:15:51;1.23;;;1.13;;
6985;SDS011;3533;51.246;6.850;2023-01-30T11:18:19;1.00;;;0.90;;
6985;SDS011;3533;51.246;6.850;2023-01-30T11:20:54;1.10;;;1.00;;
6985;SDS011;3533;51.246;6.850;2023-01-30T11:29:06;1.00;;;0.90;;
6985;SDS011;3533;51.246;6.850;2023-01-30T11:31:55;1.10;;;1.00;;
6985;SDS011;3533;51.246;6.850;2023-01-30T11:34:36;1.20;;;1.10;;
6985;SDS011;3533;51.246;6.850;2023-01-30T11:37:12;1.23;;;0.90;;
6985;SDS011;3533;51.246;6.850;2023-01-30T11:39:51;1.10;;;1.00;;
6985;SDS011;3533;51.246;6.850;2023-01-30T11:42:18;1.07;;;0.97;;
6985;SDS011;3533;51.246;6.850;2023-01-30T11:44:44;1.20;;;1.10;;
6985;SDS011;3533;51.246;6.850;2023-01-30T11:47:18;1.10;;;1.00;;
6985;SDS011;3533;51.246;6.850;2023-01-30T11:49:49;1.30;;;1.20;;
6985;SDS011;3533;51.246;6.850;2023-01-30T11:52:22;1.13;;;0.97;;
6985;SDS011;3533;51.246;6.850;2023-01-30T11:54:50;1.10;;;1.00;;
6985;SDS011;3533;51.246;6.850;2023-01-30T11:57:18;1.30;;;1.10;;
6985;SDS011;3533;51.246;6.850;2023-01-30T11:59:45;1.30;;;1.10;;
6985;SDS011;3533;51.246;6.850;2023-01-30T12:02:15;1.40;;;1.00;;
6985;SDS011;3533;51.246;6.850;2023-01-30T12:04:53;1.20;;;1.07;;
6985;SDS011;3533;51.246;6.850;2023-01-30T12:09:46;1.30;;;0.97;;
6985;SDS011;3533;51.246;6.850;2023-01-30T12:12:33;10.60;;;2.23;;
6985;SDS011;3533;51.246;6.850;2023-01-30T12:17:54;1.23;;;1.13;;
6985;SDS011;3533;51.246;6.850;2023-01-30T12:20:45;1.10;;;1.00;;
6985;SDS011;3533;51.246;6.850;2023-01-30T12:23:25;1.03;;;0.93;;
6985;SDS011;3533;51.246;6.850;2023-01-30T12:26:12;0.83;;;0.83;;
6985;SDS011;3533;51.246;6.850;2023-01-30T12:31:44;1.00;;;0.90;;
6985;SDS011;3533;51.246;6.850;2023-01-30T12:34:13;1.10;;;1.00;;
6985;SDS011;3533;51.246;6.850;2023-01-30T12:36:41;1.07;;;0.97;;
6985;SDS011;3533;51.246;6.850;2023-01-30T12:45:20;1.30;;;0.90;;
6985;SDS011;3533;51.246;6.850;2023-01-30T12:47:51;1.20;;;1.10;;
6985;SDS011;3533;51.246;6.850;2023-01-30T12:53:18;2.13;;;1.20;;
6985;SDS011;3533;51.246;6.850;2023-01-30T13:01:49;1.00;;;0.90;;
6985;SDS011;3533;51.246;6.850;2023-01-30T13:12:19;1.20;;;0.90;;
6985;SDS011;3533;51.246;6.850;2023-01-30T13:18:04;1.10;;;0.90;;
6985;SDS011;3533;51.246;6.850;2023-01-30T13:23:17;1.10;;;1.00;;
6985;SDS011;3533;51.246;6.850;2023-01-30T13:28:53;1.20;;;1.10;;
6985;SDS011;3533;51.246;6.850;2023-01-30T13:31:22;1.40;;;1.30;;
6985;SDS011;3533;51.246;6.850;2023-01-30T13:33:56;0.97;;;0.80;;
6985;SDS011;3533;51.246;6.850;2023-01-30T13:42:27;1.00;;;0.90;;
6985;SDS011;3533;51.246;6.850;2023-01-30T13:45:01;3.00;;;1.10;;
6985;SDS011;3533;51.246;6.850;2023-01-30T13:47:39;1.20;;;0.90;;
6985;SDS011;3533;51.246;6.850;2023-01-30T13:55:34;1.33;;;1.10;;
6985;SDS011;3533;51.246;6.850;2023-01-30T13:58:12;1.10;;;1.00;;
6985;SDS011;3533;51.246;6.850;2023-01-30T14:01:08;1.87;;;0.90;;
6985;SDS011;3533;51.246;6.850;2023-01-30T14:03:36;1.13;;;1.03;;
6985;SDS011;3533;51.246;6.850;2023-01-30T14:06:03;1.00;;;0.90;;
6985;SDS011;3533;51.246;6.850;2023-01-30T14:08:48;1.10;;;1.00;;
6985;SDS011;3533;51.246;6.850;2023-01-30T14:13:57;1.27;;;1.17;;
6985;SDS011;3533;51.246;6.850;2023-01-30T14:16:52;1.10;;;1.00;;
6985;SDS011;3533;51.246;6.850;2023-01-30T14:19:28;1.07;;;0.90;;
6985;SDS011;3533;51.246;6.850;2023-01-30T14:22:02;1.50;;;1.10;;
6985;SDS011;3533;51.246;6.850;2023-01-30T14:24:48;1.10;;;1.00;;
6985;SDS011;3533;51.246;6.850;2023-01-30T14:27:53;0.90;;;0.80;;
6985;SDS011;3533;51.246;6.850;2023-01-30T14:33:46;1.40;;;1.03;;
6985;SDS011;3533;51.246;6.850;2023-01-30T14:38:39;1.10;;;0.93;;
6985;SDS011;3533;51.246;6.850;2023-01-30T14:46:04;1.20;;;1.00;;
6985;SDS011;3533;51.246;6.850;2023-01-30T14:56:39;1.13;;;1.00;;
6985;SDS011;3533;51.246;6.850;2023-01-30T14:59:18;1.40;;;1.20;;
6985;SDS011;3533;51.246;6.850;2023-01-30T15:04:41;1.37;;;1.10;;
6985;SDS011;3533;51.246;6.850;2023-01-30T15:07:26;1.03;;;0.93;;
6985;SDS011;3533;51.246;6.850;2023-01-30T15:21:33;1.10;;;1.00;;
6985;SDS011;3533;51.246;6.850;2023-01-30T15:27:00;0.90;;;0.80;;
6985;SDS011;3533;51.246;6.850;2023-01-30T15:29:55;1.13;;;1.03;;
6985;SDS011;3533;51.246;6.850;2023-01-30T15:32:28;1.40;;;1.30;;
6985;SDS011;3533;51.246;6.850;2023-01-30T15:34:56;1.10;;;1.00;;
6985;SDS011;3533;51.246;6.850;2023-01-30T15:37:39;1.10;;;1.00;;
6985;SDS011;3533;51.246;6.850;2023-01-30T15:45:27;1.10;;;1.00;;
6985;SDS011;3533;51.246;6.850;2023-01-30T15:48:11;1.10;;;1.00;;
6985;SDS011;3533;51.246;6.850;2023-01-30T15:50:55;1.20;;;1.10;;
6985;SDS011;3533;51.246;6.850;2023-01-30T15:53:30;1.53;;;1.43;;
6985;SDS011;3533;51.246;6.850;2023-01-30T15:56:01;1.00;;;0.87;;
6985;SDS011;3533;51.246;6.850;2023-01-30T15:58:38;1.30;;;1.00;;
6985;SDS011;3533;51.246;6.850;2023-01-30T16:01:06;1.07;;;1.00;;
6985;SDS011;3533;51.246;6.850;2023-01-30T16:03:34;1.17;;;0.80;;
6985;SDS011;3533;51.246;6.850;2023-01-30T16:06:04;1.40;;;1.10;;
6985;SDS011;3533;51.246;6.850;2023-01-30T16:08:34;1.13;;;0.90;;
6985;SDS011;3533;51.246;6.850;2023-01-30T16:11:00;1.10;;;0.90;;
6985;SDS011;3533;51.246;6.850;2023-01-30T16:13:27;1.50;;;1.20;;
6985;SDS011;3533;51.246;6.850;2023-01-30T16:16:00;0.90;;;0.80;;
6985;SDS011;3533;51.246;6.850;2023-01-30T16:18:34;1.07;;;0.97;;
6985;SDS011;3533;51.246;6.850;2023-01-30T16:21:03;1.03;;;0.93;;
6985;SDS011;3533;51.246;6.850;2023-01-30T16:23:41;1.20;;;1.03;;
6985;SDS011;3533;51.246;6.850;2023-01-30T16:26:20;1.00;;;0.90;;
6985;SDS011;3533;51.246;6.850;2023-01-30T16:28:47;1.33;;;1.10;;
6985;SDS011;3533;51.246;6.850;2023-01-30T16:31:14;1.20;;;1.10;;
6985;SDS011;3533;51.246;6.850;2023-01-30T16:33:40;1.00;;;0.90;;
6985;SDS011;3533;51.246;6.850;2023-01-30T16:36:27;1.30;;;0.90;;
6985;SDS011;3533;51.246;6.850;2023-01-30T16:38:52;1.10;;;0.90;;
6985;SDS011;3533;51.246;6.850;2023-01-30T16:41:37;1.27;;;1.17;;
6985;SDS011;3533;51.246;6.850;2023-01-30T16:44:20;1.03;;;0.93;;
6985;SDS011;3533;51.246;6.850;2023-01-30T16:52:43;1.00;;;0.90;;
6985;SDS011;3533;51.246;6.850;2023-01-30T16:54:54;1.27;;;1.17;;
6985;SDS011;3533;51.246;6.850;2023-01-30T16:59:55;1.03;;;0.90;;
6985;SDS011;3533;51.246;6.850;2023-01-30T17:02:27;2.90;;;1.17;;
6985;SDS011;3533;51.246;6.850;2023-01-30T17:05:14;1.20;;;1.00;;
6985;SDS011;3533;51.246;6.850;2023-01-30T17:07:45;2.17;;;1.10;;
6985;SDS011;3533;51.246;6.850;2023-01-30T17:18:47;1.37;;;1.20;;
6985;SDS011;3533;51.246;6.850;2023-01-30T17:21:14;1.57;;;1.20;;
6985;SDS011;3533;51.246;6.850;2023-01-30T17:23:59;1.30;;;1.17;;
6985;SDS011;3533;51.246;6.850;2023-01-30T17:26:27;1.40;;;1.20;;
6985;SDS011;3533;51.246;6.850;2023-01-30T17:28:53;1.33;;;1.10;;
6985;SDS011;3533;51.246;6.850;2023-01-30T17:31:19;1.30;;;1.10;;
6985;SDS011;3533;51.246;6.850;2023-01-30T17:33:44;1.77;;;1.20;;
6985;SDS011;3533;51.246;6.850;2023-01-30T17:36:27;1.47;;;1.33;;
6985;SDS011;3533;51.246;6.850;2023-01-30T17:38:54;1.50;;;1.00;;
6985;SDS011;3533;51.246;6.850;2023-01-30T17:41:22;1.37;;;1.10;;
6985;SDS011;3533;51.246;6.850;2023-01-30T17:43:54;1.50;;;1.33;;
6985;SDS011;3533;51.246;6.850;2023-01-30T17:46:21;1.10;;;1.00;;
6985;SDS011;3533;51.246;6.850;2023-01-30T17:48:51;1.20;;;1.10;;
6985;SDS011;3533;51.246;6.850;2023-01-30T17:51:16;2.13;;;1.20;;
6985;SDS011;3533;51.246;6.850;2023-01-30T17:53:42;1.57;;;1.20;;
6985;SDS011;3533;51.246;6.850;2023-01-30T17:56:12;1.07;;;0.90;;
6985;SDS011;3533;51.246;6.850;2023-01-30T17:58:41;1.20;;;1.00;;
6985;SDS011;3533;51.246;6.850;2023-01-30T18:01:06;1.20;;;1.00;;
6985;SDS011;3533;51.246;6.850;2023-01-30T18:03:32;1.50;;;1.40;;
6985;SDS011;3533;51.246;6.850;2023-01-30T18:05:58;1.50;;;1.10;;
6985;SDS011;3533;51.246;6.850;2023-01-30T18:08:23;1.10;;;1.00;;
6985;SDS011;3533;51.246;6.850;2023-01-30T18:10:49;1.27;;;1.17;;
6985;SDS011;3533;51.246;6.850;2023-01-30T18:13:14;1.20;;;1.10;;
6985;SDS011;3533;51.246;6.850;2023-01-30T18:15:40;1.37;;;1.23;;
6985;SDS011;3533;51.246;6.850;2023-01-30T18:18:06;1.20;;;1.10;;
6985;SDS011;3533;51.246;6.850;2023-01-30T18:20:36;1.73;;;1.40;;
6985;SDS011;3533;51.246;6.850;2023-01-30T18:23:01;1.53;;;1.30;;
6985;SDS011;3533;51.246;6.850;2023-01-30T18:25:27;1.30;;;1.00;;
6985;SDS011;3533;51.246;6.850;2023-01-30T18:27:52;1.60;;;1.00;;
6985;SDS011;3533;51.246;6.850;2023-01-30T18:30:19;1.83;;;1.30;;
6985;SDS011;3533;51.246;6.850;2023-01-30T18:32:45;1.30;;;1.20;;
6985;SDS011;3533;51.246;6.850;2023-01-30T18:35:12;1.20;;;1.10;;
6985;SDS011;3533;51.246;6.850;2023-01-30T18:37:37;1.47;;;1.37;;